createdAt,value
2017-02-03T00:00:02.643Z,0
2017-02-03T00:05:03.425Z,0
2017-02-03T00:10:03.226Z,0
2017-02-03T00:15:02.496Z,0
2017-02-03T00:20:02.985Z,0
2017-02-03T00:25:02.743Z,0
2017-02-03T00:30:03.239Z,0
2017-02-03T00:35:03.011Z,0
2017-02-03T00:40:02.653Z,1
2017-02-03T00:45:03.158Z,0
2017-02-03T00:50:02.932Z,0
2017-02-03T00:55:03.345Z,0
2017-02-03T01:00:02.888Z,2
2017-02-03T01:05:03.103Z,1
2017-02-03T01:10:02.857Z,0
2017-02-03T01:15:02.611Z,0
2017-02-03T01:20:03.112Z,0
2017-02-03T01:25:03.531Z,3
2017-02-03T01:30:04.472Z,1
2017-02-03T01:35:02.849Z,1
2017-02-03T01:40:03.442Z,1
2017-02-03T01:45:03.136Z,1
2017-02-03T01:50:02.760Z,2
2017-02-03T01:55:03.256Z,2
2017-02-03T02:00:03.093Z,2
2017-02-03T02:05:03.459Z,1
2017-02-03T02:10:02.999Z,0
2017-02-03T02:15:02.631Z,1
2017-02-03T02:20:03.041Z,1
2017-02-03T02:25:02.835Z,1
2017-02-03T02:30:03.517Z,2
2017-02-03T02:35:02.993Z,0
2017-02-03T02:40:02.941Z,0
2017-02-03T02:45:02.558Z,1
2017-02-03T02:50:02.893Z,1
2017-02-03T02:55:03.597Z,1
2017-02-03T03:00:03.333Z,2
2017-02-03T03:05:02.617Z,2
2017-02-03T03:10:03.153Z,2
2017-02-03T03:15:02.751Z,1
2017-02-03T03:20:03.091Z,1
2017-02-03T03:25:03.493Z,2
2017-02-03T03:30:03.280Z,0
2017-02-03T03:35:02.946Z,2
2017-02-03T03:40:02.729Z,1
2017-02-03T03:45:03.433Z,2
2017-02-03T03:50:03.037Z,0
2017-02-03T03:55:03.610Z,2
2017-02-03T04:00:03.346Z,0
2017-02-03T04:05:02.777Z,2
2017-02-03T04:10:03.343Z,2
2017-02-03T04:15:03.209Z,2
2017-02-03T04:20:02.676Z,2
2017-02-03T04:25:03.305Z,2
2017-02-03T04:30:03.226Z,2
2017-02-03T04:35:02.538Z,4
2017-02-03T04:40:03.190Z,2
2017-02-03T04:45:02.907Z,3
2017-02-03T04:50:03.315Z,3
2017-02-03T04:55:02.685Z,2
2017-02-03T05:00:03.612Z,0
2017-02-03T05:05:03.095Z,0
2017-02-03T05:10:03.423Z,2
2017-02-03T05:15:03.422Z,2
2017-02-03T05:20:03.159Z,0
2017-02-03T05:25:03.481Z,0
2017-02-03T05:30:02.916Z,0
2017-02-03T05:35:02.585Z,0
2017-02-03T05:40:03.101Z,0
2017-02-03T05:45:02.592Z,0
2017-02-03T05:50:03.064Z,0
2017-02-03T05:55:02.911Z,0
2017-02-03T06:00:02.806Z,2
2017-02-03T06:05:03.324Z,2
2017-02-03T06:10:02.762Z,2
2017-02-03T06:15:03.325Z,0
2017-02-03T06:20:02.764Z,1
2017-02-03T06:25:03.367Z,3
2017-02-03T06:30:02.894Z,2
2017-02-03T06:35:03.082Z,3
2017-02-03T06:40:03.096Z,0
2017-02-03T06:45:02.837Z,0
2017-02-03T06:50:02.790Z,0
2017-02-03T06:55:03.617Z,3
2017-02-03T07:00:03.439Z,2
2017-02-03T07:05:02.919Z,6
2017-02-03T07:10:03.309Z,3
2017-02-03T07:15:02.825Z,2
2017-02-03T07:20:03.363Z,3
2017-02-03T07:25:02.857Z,4
2017-02-03T07:30:03.349Z,4
2017-02-03T07:35:02.627Z,3
2017-02-03T07:40:03.121Z,3
2017-02-03T07:45:02.692Z,3
2017-02-03T07:50:03.213Z,4
2017-02-03T07:55:02.773Z,2
2017-02-03T08:00:03.306Z,2
2017-02-03T08:05:02.875Z,1
2017-02-03T08:10:03.287Z,3
2017-02-03T08:15:02.830Z,3
2017-02-03T08:20:03.149Z,2
2017-02-03T08:25:02.745Z,4
2017-02-03T08:30:03.392Z,4
2017-02-03T08:35:02.862Z,2
2017-02-03T08:40:03.498Z,3
2017-02-03T08:45:02.890Z,3
2017-02-03T08:50:03.353Z,3
2017-02-03T08:55:02.939Z,3
2017-02-03T09:00:03.522Z,3
2017-02-03T09:05:03.127Z,3
2017-02-03T09:10:02.908Z,3
2017-02-03T09:15:03.464Z,2
2017-02-03T09:20:03.359Z,2
2017-02-03T09:25:03.125Z,1
2017-02-03T09:30:03.049Z,1
2017-02-03T09:35:03.125Z,2
2017-02-03T09:40:02.966Z,2
2017-02-03T09:45:02.888Z,3
2017-02-03T09:50:03.064Z,3
2017-02-03T09:55:03.083Z,2
2017-02-03T10:00:03.141Z,3
2017-02-03T10:05:02.832Z,3
2017-02-03T10:10:02.732Z,4
2017-02-03T10:15:02.731Z,5
2017-02-03T10:20:03.340Z,5
2017-02-03T10:25:03.262Z,5
2017-02-03T10:30:02.833Z,3
2017-02-03T10:35:03.169Z,3
2017-02-03T10:40:02.543Z,4
2017-02-03T10:45:03.017Z,7
2017-02-03T10:50:03.492Z,3
2017-02-03T10:55:03.086Z,5
2017-02-03T11:00:03.392Z,3
2017-02-03T11:05:02.792Z,6
2017-02-03T11:10:03.453Z,4
2017-02-03T11:15:02.864Z,7
2017-02-03T11:20:03.183Z,5
2017-02-03T11:25:02.554Z,7
2017-02-03T11:30:02.960Z,7
2017-02-03T11:35:03.459Z,7
2017-02-03T11:40:03.326Z,6
2017-02-03T11:45:03.280Z,4
2017-02-03T11:50:02.969Z,5
2017-02-03T11:55:02.688Z,3
2017-02-03T12:00:03.432Z,4
2017-02-03T12:05:03.166Z,5
2017-02-03T12:10:03.014Z,3
2017-02-03T12:15:02.572Z,3
2017-02-03T12:20:02.683Z,5
2017-02-03T12:25:03.540Z,8
2017-02-03T12:30:02.556Z,7
2017-02-03T12:35:03.118Z,1
2017-02-03T12:40:02.737Z,2
2017-02-03T12:45:03.409Z,0
2017-02-03T12:50:02.886Z,5
2017-02-03T12:55:03.394Z,3
2017-02-03T13:00:02.839Z,5
2017-02-03T13:05:03.339Z,2
2017-02-03T13:10:03.115Z,7
2017-02-03T13:15:02.991Z,6
2017-02-03T13:20:03.568Z,3
2017-02-03T13:25:03.296Z,4
2017-02-03T13:30:03.199Z,2
2017-02-03T13:35:02.962Z,5
2017-02-03T13:40:02.623Z,4
2017-02-03T13:45:03.165Z,3
2017-02-03T13:50:02.758Z,3
2017-02-03T13:55:03.414Z,7
2017-02-03T14:00:02.875Z,5
2017-02-03T14:05:03.475Z,3
2017-02-03T14:10:02.970Z,3
2017-02-03T14:15:03.435Z,2
2017-02-03T14:20:03.130Z,3
2017-02-03T14:25:02.807Z,3
2017-02-03T14:30:03.588Z,3
2017-02-03T14:35:03.437Z,2
2017-02-03T14:40:03.054Z,0
2017-02-03T14:45:03.418Z,0
2017-02-03T14:50:03.251Z,0
2017-02-03T14:55:03.154Z,0
2017-02-03T15:00:03.228Z,0
2017-02-03T15:05:02.611Z,0
2017-02-03T15:10:03.356Z,0
2017-02-03T15:15:02.989Z,0
2017-02-03T15:20:02.899Z,0
2017-02-03T15:25:03.484Z,0
2017-02-03T15:30:03.119Z,0
2017-02-03T15:35:03.176Z,0
2017-02-03T15:40:02.977Z,0
2017-02-03T15:45:02.626Z,0
2017-02-03T15:50:03.404Z,0
2017-02-03T15:55:03.030Z,1
2017-02-03T16:00:02.606Z,0
2017-02-03T16:05:03.251Z,0
2017-02-03T16:10:03.230Z,0
2017-02-03T16:15:02.768Z,0
2017-02-03T16:20:02.572Z,0
2017-02-03T16:25:03.026Z,0
2017-02-03T16:30:02.774Z,0
2017-02-03T16:35:03.393Z,0
2017-02-03T16:40:03.002Z,0
2017-02-03T16:45:02.569Z,0
2017-02-03T16:50:03.320Z,0
2017-02-03T16:55:02.902Z,0
2017-02-03T17:00:02.672Z,0
2017-02-03T17:05:03.227Z,0
2017-02-03T17:10:02.730Z,0
2017-02-03T17:15:02.615Z,0
2017-02-03T17:20:03.063Z,0
2017-02-03T17:25:02.665Z,0
2017-02-03T17:30:03.614Z,0
2017-02-03T17:35:03.226Z,1
2017-02-03T17:40:02.705Z,0
2017-02-03T17:45:03.335Z,0
2017-02-03T17:50:02.971Z,1
2017-02-03T17:55:02.512Z,0
2017-02-03T18:00:03.187Z,0
2017-02-03T18:05:03.040Z,0
2017-02-03T18:10:03.469Z,0
2017-02-03T18:15:02.948Z,0
2017-02-03T18:20:03.491Z,0
2017-02-03T18:25:03.265Z,0
2017-02-03T18:30:02.985Z,0
2017-02-03T18:35:03.473Z,0
2017-02-03T18:40:03.031Z,0
2017-02-03T18:45:03.538Z,0
2017-02-03T18:50:03.487Z,0
2017-02-03T18:55:03.526Z,0
2017-02-03T19:00:02.956Z,2
2017-02-03T19:05:02.583Z,1
2017-02-03T19:10:03.138Z,0
2017-02-03T19:15:02.674Z,0
2017-02-03T19:20:03.172Z,2
2017-02-03T19:25:02.622Z,1
2017-02-03T19:30:03.024Z,0
2017-02-03T19:35:02.638Z,2
2017-02-03T19:40:03.315Z,3
2017-02-03T19:45:03.079Z,2
2017-02-03T19:50:02.897Z,0
2017-02-03T19:55:02.913Z,0
2017-02-03T20:00:03.560Z,0
2017-02-03T20:05:02.911Z,2
2017-02-03T20:10:03.468Z,0
2017-02-03T20:15:02.928Z,0
2017-02-03T20:20:03.251Z,0
2017-02-03T20:25:02.753Z,0
2017-02-03T20:30:03.266Z,0
2017-02-03T20:35:02.937Z,0
2017-02-03T20:40:02.827Z,0
2017-02-03T20:45:03.583Z,0
2017-02-03T20:50:03.117Z,2
2017-02-03T20:55:02.593Z,0
2017-02-03T21:00:03.074Z,0
2017-02-03T21:05:02.662Z,0
2017-02-03T21:10:03.091Z,0
2017-02-03T21:15:02.651Z,1
2017-02-03T21:20:03.075Z,1
2017-02-03T21:25:02.791Z,1
2017-02-03T21:30:03.516Z,0
2017-02-03T21:35:03.238Z,1
2017-02-03T21:40:03.031Z,0
2017-02-03T21:45:03.474Z,0
2017-02-03T21:50:03.153Z,0
2017-02-03T21:55:02.696Z,0
2017-02-03T22:00:02.581Z,0
2017-02-03T22:05:02.952Z,0
2017-02-03T22:10:03.329Z,0
2017-02-03T22:15:03.361Z,0
2017-02-03T22:20:03.014Z,0
2017-02-03T22:25:02.780Z,0
2017-02-03T22:30:03.299Z,1
2017-02-03T22:35:02.779Z,0
2017-02-03T22:40:03.438Z,0
2017-02-03T22:45:03.033Z,2
2017-02-03T22:50:02.566Z,3
2017-02-03T22:55:03.173Z,2
2017-02-03T23:00:02.769Z,3
2017-02-03T23:05:03.377Z,2
2017-02-03T23:10:03.020Z,2
2017-02-03T23:15:02.734Z,1
2017-02-03T23:20:03.461Z,4
2017-02-03T23:25:03.471Z,3
2017-02-03T23:30:03.111Z,4
2017-02-03T23:35:03.129Z,2
2017-02-03T23:40:02.550Z,3
2017-02-03T23:45:02.870Z,4
2017-02-03T23:50:03.406Z,3
2017-02-03T23:55:03.317Z,2
